sensor_id;sensor_type;location;lat;lon;timestamp;P1;durP1;ratioP1;P2;durP2;ratioP2
30127;SDS011;16942;53.196;6.592;2022-11-15T00:00:49;28.63;;;17.57;;
30127;SDS011;16942;53.196;6.592;2022-11-15T00:03:20;30.00;;;18.67;;
30127;SDS011;16942;53.196;6.592;2022-11-15T00:05:46;29.80;;;17.37;;
30127;SDS011;16942;53.196;6.592;2022-11-15T00:08:12;31.20;;;16.67;;
30127;SDS011;16942;53.196;6.592;2022-11-15T00:10:39;30.23;;;16.60;;
30127;SDS011;16942;53.196;6.592;2022-11-15T00:13:09;32.70;;;16.83;;
30127;SDS011;16942;53.196;6.592;2022-11-15T00:15:36;29.87;;;16.73;;
30127;SDS011;16942;53.196;6.592;2022-11-15T00:18:02;26.57;;;15.17;;
30127;SDS011;16942;53.196;6.592;2022-11-15T00:20:28;30.57;;;17.13;;
30127;SDS011;16942;53.196;6.592;2022-11-15T00:22:55;31.00;;;17.57;;
30127;SDS011;16942;53.196;6.592;2022-11-15T00:25:21;30.07;;;16.70;;
30127;SDS011;16942;53.196;6.592;2022-11-15T00:27:47;32.27;;;16.73;;
30127;SDS011;16942;53.196;6.592;2022-11-15T00:30:13;28.67;;;16.07;;
30127;SDS011;16942;53.196;6.592;2022-11-15T00:32:39;29.47;;;16.93;;
30127;SDS011;16942;53.196;6.592;2022-11-15T00:35:05;30.10;;;17.47;;
30127;SDS011;16942;53.196;6.592;2022-11-15T00:37:31;29.30;;;17.47;;
30127;SDS011;16942;53.196;6.592;2022-11-15T00:39:57;33.67;;;17.60;;
30127;SDS011;16942;53.196;6.592;2022-11-15T00:42:23;34.13;;;17.63;;
30127;SDS011;16942;53.196;6.592;2022-11-15T00:44:49;32.67;;;17.53;;
30127;SDS011;16942;53.196;6.592;2022-11-15T00:47:15;34.90;;;17.50;;
30127;SDS011;16942;53.196;6.592;2022-11-15T00:49:41;37.37;;;17.40;;
30127;SDS011;16942;53.196;6.592;2022-11-15T00:52:07;31.53;;;17.93;;
30127;SDS011;16942;53.196;6.592;2022-11-15T00:54:33;32.87;;;17.10;;
30127;SDS011;16942;53.196;6.592;2022-11-15T00:56:59;32.00;;;17.93;;
30127;SDS011;16942;53.196;6.592;2022-11-15T00:59:25;35.47;;;16.73;;
30127;SDS011;16942;53.196;6.592;2022-11-15T01:01:51;33.13;;;18.10;;
30127;SDS011;16942;53.196;6.592;2022-11-15T01:04:17;29.73;;;16.07;;
30127;SDS011;16942;53.196;6.592;2022-11-15T01:06:43;27.57;;;16.00;;
30127;SDS011;16942;53.196;6.592;2022-11-15T01:09:09;27.03;;;15.47;;
30127;SDS011;16942;53.196;6.592;2022-11-15T01:11:35;27.77;;;16.27;;
30127;SDS011;16942;53.196;6.592;2022-11-15T01:14:01;29.13;;;16.23;;
30127;SDS011;16942;53.196;6.592;2022-11-15T01:16:27;32.03;;;16.17;;
30127;SDS011;16942;53.196;6.592;2022-11-15T01:18:53;32.37;;;15.80;;
30127;SDS011;16942;53.196;6.592;2022-11-15T01:21:19;26.27;;;15.30;;
30127;SDS011;16942;53.196;6.592;2022-11-15T01:23:45;29.87;;;16.07;;
30127;SDS011;16942;53.196;6.592;2022-11-15T01:26:12;28.30;;;16.77;;
30127;SDS011;16942;53.196;6.592;2022-11-15T01:28:39;30.87;;;15.93;;
30127;SDS011;16942;53.196;6.592;2022-11-15T01:31:07;28.13;;;15.27;;
30127;SDS011;16942;53.196;6.592;2022-11-15T01:33:34;41.37;;;18.57;;
30127;SDS011;16942;53.196;6.592;2022-11-15T01:36:04;30.80;;;16.17;;
30127;SDS011;16942;53.196;6.592;2022-11-15T01:38:31;30.23;;;16.67;;
30127;SDS011;16942;53.196;6.592;2022-11-15T01:40:57;31.87;;;17.47;;
30127;SDS011;16942;53.196;6.592;2022-11-15T01:45:50;30.40;;;16.97;;
30127;SDS011;16942;53.196;6.592;2022-11-15T01:48:17;31.83;;;16.57;;
30127;SDS011;16942;53.196;6.592;2022-11-15T01:50:43;30.83;;;16.97;;
30127;SDS011;16942;53.196;6.592;2022-11-15T01:53:10;31.20;;;16.27;;
30127;SDS011;16942;53.196;6.592;2022-11-15T01:55:36;33.90;;;16.57;;
30127;SDS011;16942;53.196;6.592;2022-11-15T01:58:02;33.97;;;17.40;;
30127;SDS011;16942;53.196;6.592;2022-11-15T02:00:30;34.50;;;17.13;;
30127;SDS011;16942;53.196;6.592;2022-11-15T02:02:56;31.40;;;16.93;;
30127;SDS011;16942;53.196;6.592;2022-11-15T02:05:22;30.07;;;16.23;;
30127;SDS011;16942;53.196;6.592;2022-11-15T02:07:48;32.47;;;17.87;;
30127;SDS011;16942;53.196;6.592;2022-11-15T02:10:19;33.03;;;16.50;;
30127;SDS011;16942;53.196;6.592;2022-11-15T02:12:45;35.30;;;17.17;;
30127;SDS011;16942;53.196;6.592;2022-11-15T02:15:12;30.97;;;15.87;;
30127;SDS011;16942;53.196;6.592;2022-11-15T02:30:28;28.23;;;14.93;;
30127;SDS011;16942;53.196;6.592;2022-11-15T02:33:02;32.37;;;15.73;;
30127;SDS011;16942;53.196;6.592;2022-11-15T02:38:14;29.83;;;14.97;;
30127;SDS011;16942;53.196;6.592;2022-11-15T02:40:45;33.53;;;16.23;;
30127;SDS011;16942;53.196;6.592;2022-11-15T02:43:17;34.10;;;17.03;;
30127;SDS011;16942;53.196;6.592;2022-11-15T02:46:12;35.00;;;16.23;;
30127;SDS011;16942;53.196;6.592;2022-11-15T02:48:40;31.17;;;16.63;;
30127;SDS011;16942;53.196;6.592;2022-11-15T02:51:07;40.33;;;17.20;;
30127;SDS011;16942;53.196;6.592;2022-11-15T02:53:34;32.33;;;16.73;;
30127;SDS011;16942;53.196;6.592;2022-11-15T02:56:00;32.93;;;16.57;;
30127;SDS011;16942;53.196;6.592;2022-11-15T03:06:38;39.30;;;17.97;;
30127;SDS011;16942;53.196;6.592;2022-11-15T03:11:37;33.97;;;16.73;;
30127;SDS011;16942;53.196;6.592;2022-11-15T03:14:11;36.73;;;16.73;;
30127;SDS011;16942;53.196;6.592;2022-11-15T03:16:46;39.13;;;17.87;;
30127;SDS011;16942;53.196;6.592;2022-11-15T03:19:16;42.27;;;18.30;;
30127;SDS011;16942;53.196;6.592;2022-11-15T03:21:43;36.60;;;17.07;;
30127;SDS011;16942;53.196;6.592;2022-11-15T03:24:10;34.63;;;17.70;;
30127;SDS011;16942;53.196;6.592;2022-11-15T03:26:38;36.03;;;17.93;;
30127;SDS011;16942;53.196;6.592;2022-11-15T03:29:16;37.63;;;16.97;;
30127;SDS011;16942;53.196;6.592;2022-11-15T03:31:44;38.17;;;17.77;;
30127;SDS011;16942;53.196;6.592;2022-11-15T03:34:14;35.00;;;18.10;;
30127;SDS011;16942;53.196;6.592;2022-11-15T03:36:41;34.63;;;16.83;;
30127;SDS011;16942;53.196;6.592;2022-11-15T03:39:07;35.23;;;17.23;;
30127;SDS011;16942;53.196;6.592;2022-11-15T03:44:04;38.83;;;17.23;;
30127;SDS011;16942;53.196;6.592;2022-11-15T03:46:33;40.07;;;18.37;;
30127;SDS011;16942;53.196;6.592;2022-11-15T03:49:08;42.07;;;17.17;;
30127;SDS011;16942;53.196;6.592;2022-11-15T03:51:35;37.90;;;18.30;;
30127;SDS011;16942;53.196;6.592;2022-11-15T03:54:02;35.53;;;16.33;;
30127;SDS011;16942;53.196;6.592;2022-11-15T03:56:29;38.83;;;17.70;;
30127;SDS011;16942;53.196;6.592;2022-11-15T03:58:55;33.07;;;16.23;;
30127;SDS011;16942;53.196;6.592;2022-11-15T04:01:21;38.93;;;18.00;;
30127;SDS011;16942;53.196;6.592;2022-11-15T04:03:47;36.23;;;17.80;;
30127;SDS011;16942;53.196;6.592;2022-11-15T04:06:13;35.37;;;16.90;;
30127;SDS011;16942;53.196;6.592;2022-11-15T04:08:39;33.63;;;15.87;;
30127;SDS011;16942;53.196;6.592;2022-11-15T04:11:05;37.17;;;16.87;;
30127;SDS011;16942;53.196;6.592;2022-11-15T04:13:31;35.90;;;17.57;;
30127;SDS011;16942;53.196;6.592;2022-11-15T04:15:57;39.10;;;17.50;;
30127;SDS011;16942;53.196;6.592;2022-11-15T04:18:23;40.20;;;18.00;;
30127;SDS011;16942;53.196;6.592;2022-11-15T04:20:49;44.93;;;17.60;;
30127;SDS011;16942;53.196;6.592;2022-11-15T04:23:34;38.20;;;17.67;;
30127;SDS011;16942;53.196;6.592;2022-11-15T04:26:19;40.57;;;17.47;;
30127;SDS011;16942;53.196;6.592;2022-11-15T04:28:46;37.93;;;18.17;;
30127;SDS011;16942;53.196;6.592;2022-11-15T04:31:30;39.17;;;17.67;;
30127;SDS011;16942;53.196;6.592;2022-11-15T04:33:56;43.10;;;17.33;;
30127;SDS011;16942;53.196;6.592;2022-11-15T04:36:23;43.90;;;18.47;;
30127;SDS011;16942;53.196;6.592;2022-11-15T04:39:08;41.23;;;18.10;;
30127;SDS011;16942;53.196;6.592;2022-11-15T04:41:34;37.93;;;18.10;;
30127;SDS011;16942;53.196;6.592;2022-11-15T04:44:00;42.67;;;18.13;;
30127;SDS011;16942;53.196;6.592;2022-11-15T04:46:26;42.50;;;18.97;;
30127;SDS011;16942;53.196;6.592;2022-11-15T04:48:52;42.20;;;19.27;;
30127;SDS011;16942;53.196;6.592;2022-11-15T04:51:19;47.43;;;18.70;;
30127;SDS011;16942;53.196;6.592;2022-11-15T04:53:45;49.33;;;19.03;;
30127;SDS011;16942;53.196;6.592;2022-11-15T04:56:11;41.93;;;18.53;;
30127;SDS011;16942;53.196;6.592;2022-11-15T04:58:37;45.30;;;19.00;;
30127;SDS011;16942;53.196;6.592;2022-11-15T05:01:10;50.77;;;19.37;;
30127;SDS011;16942;53.196;6.592;2022-11-15T05:03:37;43.97;;;20.13;;
30127;SDS011;16942;53.196;6.592;2022-11-15T05:06:22;47.03;;;18.93;;
30127;SDS011;16942;53.196;6.592;2022-11-15T05:08:48;44.27;;;18.93;;
30127;SDS011;16942;53.196;6.592;2022-11-15T05:11:14;46.60;;;19.97;;
30127;SDS011;16942;53.196;6.592;2022-11-15T05:13:40;48.73;;;19.87;;
30127;SDS011;16942;53.196;6.592;2022-11-15T05:16:06;49.33;;;22.23;;
30127;SDS011;16942;53.196;6.592;2022-11-15T05:18:32;52.87;;;21.77;;
30127;SDS011;16942;53.196;6.592;2022-11-15T05:21:05;55.80;;;21.17;;
30127;SDS011;16942;53.196;6.592;2022-11-15T05:23:31;58.10;;;22.47;;
30127;SDS011;16942;53.196;6.592;2022-11-15T05:26:00;48.33;;;22.23;;
30127;SDS011;16942;53.196;6.592;2022-11-15T05:28:27;51.67;;;21.73;;
30127;SDS011;16942;53.196;6.592;2022-11-15T05:30:53;53.80;;;22.17;;
30127;SDS011;16942;53.196;6.592;2022-11-15T05:33:19;55.47;;;22.47;;
30127;SDS011;16942;53.196;6.592;2022-11-15T05:35:46;57.13;;;22.20;;
30127;SDS011;16942;53.196;6.592;2022-11-15T05:38:14;54.43;;;25.30;;
30127;SDS011;16942;53.196;6.592;2022-11-15T05:40:40;57.13;;;23.50;;
30127;SDS011;16942;53.196;6.592;2022-11-15T05:43:06;56.33;;;23.23;;
30127;SDS011;16942;53.196;6.592;2022-11-15T05:45:33;67.67;;;24.80;;
30127;SDS011;16942;53.196;6.592;2022-11-15T05:48:00;54.57;;;23.23;;
30127;SDS011;16942;53.196;6.592;2022-11-15T05:50:26;62.50;;;24.73;;
30127;SDS011;16942;53.196;6.592;2022-11-15T05:52:53;62.33;;;25.00;;
30127;SDS011;16942;53.196;6.592;2022-11-15T05:55:20;61.43;;;25.03;;
30127;SDS011;16942;53.196;6.592;2022-11-15T05:57:46;62.90;;;23.57;;
30127;SDS011;16942;53.196;6.592;2022-11-15T06:00:12;63.03;;;24.33;;
30127;SDS011;16942;53.196;6.592;2022-11-15T06:02:38;58.87;;;24.20;;
30127;SDS011;16942;53.196;6.592;2022-11-15T06:05:04;56.83;;;24.60;;
30127;SDS011;16942;53.196;6.592;2022-11-15T06:07:31;61.97;;;27.13;;
30127;SDS011;16942;53.196;6.592;2022-11-15T06:09:57;69.63;;;26.00;;
30127;SDS011;16942;53.196;6.592;2022-11-15T06:12:23;69.13;;;26.30;;
30127;SDS011;16942;53.196;6.592;2022-11-15T06:14:49;79.17;;;32.23;;
30127;SDS011;16942;53.196;6.592;2022-11-15T06:17:15;66.20;;;27.30;;
30127;SDS011;16942;53.196;6.592;2022-11-15T06:19:41;69.43;;;28.03;;
30127;SDS011;16942;53.196;6.592;2022-11-15T06:22:07;67.87;;;25.63;;
30127;SDS011;16942;53.196;6.592;2022-11-15T06:24:34;61.17;;;25.50;;
30127;SDS011;16942;53.196;6.592;2022-11-15T06:27:00;69.33;;;27.80;;
30127;SDS011;16942;53.196;6.592;2022-11-15T06:29:26;57.57;;;25.97;;
30127;SDS011;16942;53.196;6.592;2022-11-15T06:31:52;65.40;;;26.73;;
30127;SDS011;16942;53.196;6.592;2022-11-15T06:34:18;63.53;;;27.30;;
30127;SDS011;16942;53.196;6.592;2022-11-15T06:36:44;61.47;;;26.73;;
30127;SDS011;16942;53.196;6.592;2022-11-15T06:39:10;66.30;;;25.80;;
30127;SDS011;16942;53.196;6.592;2022-11-15T06:41:36;67.13;;;27.03;;
30127;SDS011;16942;53.196;6.592;2022-11-15T06:44:02;65.57;;;26.73;;
30127;SDS011;16942;53.196;6.592;2022-11-15T06:46:28;61.60;;;25.20;;
30127;SDS011;16942;53.196;6.592;2022-11-15T06:48:55;53.13;;;26.90;;
30127;SDS011;16942;53.196;6.592;2022-11-15T06:51:21;52.43;;;25.43;;
30127;SDS011;16942;53.196;6.592;2022-11-15T06:53:47;58.27;;;26.03;;
30127;SDS011;16942;53.196;6.592;2022-11-15T06:56:13;64.33;;;26.87;;
30127;SDS011;16942;53.196;6.592;2022-11-15T06:58:39;52.50;;;25.63;;
30127;SDS011;16942;53.196;6.592;2022-11-15T07:01:06;65.73;;;27.77;;
30127;SDS011;16942;53.196;6.592;2022-11-15T07:03:36;65.33;;;27.37;;
30127;SDS011;16942;53.196;6.592;2022-11-15T07:06:03;57.13;;;25.63;;
30127;SDS011;16942;53.196;6.592;2022-11-15T07:08:29;56.73;;;26.13;;
30127;SDS011;16942;53.196;6.592;2022-11-15T07:10:59;57.37;;;26.73;;
30127;SDS011;16942;53.196;6.592;2022-11-15T07:13:27;53.40;;;25.33;;
30127;SDS011;16942;53.196;6.592;2022-11-15T07:15:53;59.47;;;25.47;;
30127;SDS011;16942;53.196;6.592;2022-11-15T07:18:19;62.13;;;26.63;;
30127;SDS011;16942;53.196;6.592;2022-11-15T07:20:46;53.80;;;26.43;;
30127;SDS011;16942;53.196;6.592;2022-11-15T07:23:12;55.67;;;25.07;;
30127;SDS011;16942;53.196;6.592;2022-11-15T07:25:38;68.57;;;27.40;;
30127;SDS011;16942;53.196;6.592;2022-11-15T07:28:04;60.30;;;26.37;;
30127;SDS011;16942;53.196;6.592;2022-11-15T07:30:30;63.67;;;26.47;;
30127;SDS011;16942;53.196;6.592;2022-11-15T07:32:56;62.93;;;27.20;;
30127;SDS011;16942;53.196;6.592;2022-11-15T07:35:23;57.40;;;25.60;;
30127;SDS011;16942;53.196;6.592;2022-11-15T07:38:07;58.83;;;26.80;;
30127;SDS011;16942;53.196;6.592;2022-11-15T07:40:33;58.93;;;26.03;;
30127;SDS011;16942;53.196;6.592;2022-11-15T07:43:00;58.80;;;25.97;;
30127;SDS011;16942;53.196;6.592;2022-11-15T07:45:26;54.73;;;25.20;;
30127;SDS011;16942;53.196;6.592;2022-11-15T07:47:52;56.23;;;25.10;;
30127;SDS011;16942;53.196;6.592;2022-11-15T07:50:18;58.13;;;25.97;;
30127;SDS011;16942;53.196;6.592;2022-11-15T07:52:45;56.47;;;24.90;;
30127;SDS011;16942;53.196;6.592;2022-11-15T07:55:11;54.33;;;23.93;;
30127;SDS011;16942;53.196;6.592;2022-11-15T07:57:37;56.43;;;25.07;;
30127;SDS011;16942;53.196;6.592;2022-11-15T08:00:06;48.93;;;25.03;;
30127;SDS011;16942;53.196;6.592;2022-11-15T08:02:32;51.17;;;24.33;;
30127;SDS011;16942;53.196;6.592;2022-11-15T08:04:58;49.67;;;23.77;;
30127;SDS011;16942;53.196;6.592;2022-11-15T08:07:24;47.20;;;23.70;;
30127;SDS011;16942;53.196;6.592;2022-11-15T08:09:50;52.53;;;22.77;;
30127;SDS011;16942;53.196;6.592;2022-11-15T08:12:16;53.00;;;24.10;;
30127;SDS011;16942;53.196;6.592;2022-11-15T08:14:42;51.03;;;24.63;;
30127;SDS011;16942;53.196;6.592;2022-11-15T08:17:09;50.40;;;23.37;;
30127;SDS011;16942;53.196;6.592;2022-11-15T08:19:35;46.93;;;22.53;;
30127;SDS011;16942;53.196;6.592;2022-11-15T08:22:01;45.17;;;22.80;;
30127;SDS011;16942;53.196;6.592;2022-11-15T08:24:27;42.27;;;21.90;;
30127;SDS011;16942;53.196;6.592;2022-11-15T08:26:53;43.67;;;22.23;;
30127;SDS011;16942;53.196;6.592;2022-11-15T08:29:19;41.73;;;22.50;;
30127;SDS011;16942;53.196;6.592;2022-11-15T08:31:45;44.50;;;22.27;;
30127;SDS011;16942;53.196;6.592;2022-11-15T08:34:11;44.33;;;21.70;;
30127;SDS011;16942;53.196;6.592;2022-11-15T08:36:40;40.33;;;21.37;;
30127;SDS011;16942;53.196;6.592;2022-11-15T08:39:09;42.77;;;21.67;;
30127;SDS011;16942;53.196;6.592;2022-11-15T08:41:36;46.53;;;22.20;;
30127;SDS011;16942;53.196;6.592;2022-11-15T08:44:02;37.07;;;20.10;;
30127;SDS011;16942;53.196;6.592;2022-11-15T08:46:28;34.43;;;19.50;;
30127;SDS011;16942;53.196;6.592;2022-11-15T08:48:54;36.33;;;19.53;;
30127;SDS011;16942;53.196;6.592;2022-11-15T08:51:20;33.90;;;19.77;;
30127;SDS011;16942;53.196;6.592;2022-11-15T08:53:46;37.10;;;19.20;;
30127;SDS011;16942;53.196;6.592;2022-11-15T08:56:13;34.93;;;18.97;;
30127;SDS011;16942;53.196;6.592;2022-11-15T08:58:40;35.07;;;19.27;;
30127;SDS011;16942;53.196;6.592;2022-11-15T09:01:13;39.80;;;18.73;;
30127;SDS011;16942;53.196;6.592;2022-11-15T09:03:40;32.30;;;17.93;;
30127;SDS011;16942;53.196;6.592;2022-11-15T09:06:06;28.07;;;17.23;;
30127;SDS011;16942;53.196;6.592;2022-11-15T09:08:32;32.63;;;17.83;;
30127;SDS011;16942;53.196;6.592;2022-11-15T09:11:02;29.87;;;18.10;;
30127;SDS011;16942;53.196;6.592;2022-11-15T09:13:28;30.00;;;15.80;;
30127;SDS011;16942;53.196;6.592;2022-11-15T09:15:57;32.73;;;17.83;;
30127;SDS011;16942;53.196;6.592;2022-11-15T09:18:24;28.37;;;15.87;;
30127;SDS011;16942;53.196;6.592;2022-11-15T09:20:50;30.53;;;15.77;;
30127;SDS011;16942;53.196;6.592;2022-11-15T09:23:16;26.87;;;15.37;;
30127;SDS011;16942;53.196;6.592;2022-11-15T09:25:42;31.73;;;16.07;;
30127;SDS011;16942;53.196;6.592;2022-11-15T09:28:08;26.80;;;15.50;;
30127;SDS011;16942;53.196;6.592;2022-11-15T09:30:34;25.30;;;14.60;;
30127;SDS011;16942;53.196;6.592;2022-11-15T09:33:06;27.37;;;14.47;;
30127;SDS011;16942;53.196;6.592;2022-11-15T09:35:32;25.37;;;15.20;;
30127;SDS011;16942;53.196;6.592;2022-11-15T09:37:58;25.23;;;15.20;;
30127;SDS011;16942;53.196;6.592;2022-11-15T09:40:24;30.10;;;15.53;;
30127;SDS011;16942;53.196;6.592;2022-11-15T09:45:22;32.10;;;15.43;;
30127;SDS011;16942;53.196;6.592;2022-11-15T09:47:54;22.33;;;14.60;;
30127;SDS011;16942;53.196;6.592;2022-11-15T09:50:31;22.77;;;14.00;;
30127;SDS011;16942;53.196;6.592;2022-11-15T09:52:59;24.40;;;14.80;;
30127;SDS011;16942;53.196;6.592;2022-11-15T09:55:30;27.97;;;15.83;;
30127;SDS011;16942;53.196;6.592;2022-11-15T09:58:07;23.53;;;13.97;;
30127;SDS011;16942;53.196;6.592;2022-11-15T10:00:38;28.13;;;14.63;;
30127;SDS011;16942;53.196;6.592;2022-11-15T10:05:45;27.57;;;14.53;;
30127;SDS011;16942;53.196;6.592;2022-11-15T10:11:00;26.13;;;14.27;;
30127;SDS011;16942;53.196;6.592;2022-11-15T10:13:34;32.27;;;15.43;;
30127;SDS011;16942;53.196;6.592;2022-11-15T10:21:22;28.47;;;14.77;;
30127;SDS011;16942;53.196;6.592;2022-11-15T10:23:50;27.73;;;14.30;;
30127;SDS011;16942;53.196;6.592;2022-11-15T10:26:16;24.20;;;15.03;;
30127;SDS011;16942;53.196;6.592;2022-11-15T10:28:42;20.90;;;12.97;;
30127;SDS011;16942;53.196;6.592;2022-11-15T10:31:25;23.77;;;13.90;;
30127;SDS011;16942;53.196;6.592;2022-11-15T10:33:56;22.67;;;12.43;;
30127;SDS011;16942;53.196;6.592;2022-11-15T10:36:24;21.70;;;13.30;;
30127;SDS011;16942;53.196;6.592;2022-11-15T10:41:27;22.17;;;12.50;;
30127;SDS011;16942;53.196;6.592;2022-11-15T10:44:02;22.87;;;14.63;;
30127;SDS011;16942;53.196;6.592;2022-11-15T10:46:28;24.30;;;13.53;;
30127;SDS011;16942;53.196;6.592;2022-11-15T10:49:05;21.07;;;12.97;;
30127;SDS011;16942;53.196;6.592;2022-11-15T10:51:39;25.37;;;12.50;;
30127;SDS011;16942;53.196;6.592;2022-11-15T10:54:06;21.63;;;12.17;;
30127;SDS011;16942;53.196;6.592;2022-11-15T10:56:34;22.93;;;13.03;;
30127;SDS011;16942;53.196;6.592;2022-11-15T10:59:00;19.77;;;12.83;;
30127;SDS011;16942;53.196;6.592;2022-11-15T11:01:27;23.83;;;14.07;;
30127;SDS011;16942;53.196;6.592;2022-11-15T11:04:03;25.00;;;13.90;;
30127;SDS011;16942;53.196;6.592;2022-11-15T11:06:30;23.70;;;13.40;;
30127;SDS011;16942;53.196;6.592;2022-11-15T11:08:59;24.77;;;13.33;;
30127;SDS011;16942;53.196;6.592;2022-11-15T11:14:12;25.20;;;14.63;;
30127;SDS011;16942;53.196;6.592;2022-11-15T11:16:42;33.83;;;15.40;;
30127;SDS011;16942;53.196;6.592;2022-11-15T11:34:34;17.97;;;12.20;;
30127;SDS011;16942;53.196;6.592;2022-11-15T11:37:14;21.03;;;11.60;;
30127;SDS011;16942;53.196;6.592;2022-11-15T11:45:10;19.33;;;10.60;;
30127;SDS011;16942;53.196;6.592;2022-11-15T11:47:49;14.00;;;9.63;;
30127;SDS011;16942;53.196;6.592;2022-11-15T11:50:24;14.03;;;8.77;;
30127;SDS011;16942;53.196;6.592;2022-11-15T11:53:01;13.70;;;8.67;;
30127;SDS011;16942;53.196;6.592;2022-11-15T11:55:33;11.20;;;7.63;;
30127;SDS011;16942;53.196;6.592;2022-11-15T12:01:07;10.70;;;7.00;;
30127;SDS011;16942;53.196;6.592;2022-11-15T12:06:24;9.53;;;6.30;;
30127;SDS011;16942;53.196;6.592;2022-11-15T12:14:04;8.63;;;5.83;;
30127;SDS011;16942;53.196;6.592;2022-11-15T12:16:31;9.83;;;5.90;;
30127;SDS011;16942;53.196;6.592;2022-11-15T12:19:02;9.30;;;6.10;;
30127;SDS011;16942;53.196;6.592;2022-11-15T12:21:35;8.40;;;5.50;;
30127;SDS011;16942;53.196;6.592;2022-11-15T12:24:07;8.03;;;5.07;;
30127;SDS011;16942;53.196;6.592;2022-11-15T12:26:38;7.27;;;4.70;;
30127;SDS011;16942;53.196;6.592;2022-11-15T12:29:15;7.63;;;4.30;;
30127;SDS011;16942;53.196;6.592;2022-11-15T12:31:49;7.30;;;5.07;;
30127;SDS011;16942;53.196;6.592;2022-11-15T12:36:45;6.57;;;4.53;;
30127;SDS011;16942;53.196;6.592;2022-11-15T12:39:12;7.97;;;4.57;;
30127;SDS011;16942;53.196;6.592;2022-11-15T12:41:42;9.30;;;4.67;;
30127;SDS011;16942;53.196;6.592;2022-11-15T12:47:00;7.23;;;4.23;;
30127;SDS011;16942;53.196;6.592;2022-11-15T13:02:24;6.87;;;3.77;;
30127;SDS011;16942;53.196;6.592;2022-11-15T13:04:51;4.83;;;3.50;;
30127;SDS011;16942;53.196;6.592;2022-11-15T13:10:28;7.00;;;3.60;;
30127;SDS011;16942;53.196;6.592;2022-11-15T13:12:51;8.47;;;4.00;;
30127;SDS011;16942;53.196;6.592;2022-11-15T13:17:50;7.13;;;4.07;;
30127;SDS011;16942;53.196;6.592;2022-11-15T13:20:18;4.90;;;3.10;;
30127;SDS011;16942;53.196;6.592;2022-11-15T13:22:46;4.97;;;3.57;;
30127;SDS011;16942;53.196;6.592;2022-11-15T13:28:47;6.23;;;3.30;;
30127;SDS011;16942;53.196;6.592;2022-11-15T13:30:55;6.03;;;3.33;;
30127;SDS011;16942;53.196;6.592;2022-11-15T13:35:55;5.63;;;3.17;;
30127;SDS011;16942;53.196;6.592;2022-11-15T13:40:54;11.73;;;3.27;;
30127;SDS011;16942;53.196;6.592;2022-11-15T13:48:34;3.80;;;2.30;;
30127;SDS011;16942;53.196;6.592;2022-11-15T13:51:04;4.27;;;2.90;;
30127;SDS011;16942;53.196;6.592;2022-11-15T13:53:32;4.77;;;2.50;;
30127;SDS011;16942;53.196;6.592;2022-11-15T13:55:59;3.60;;;2.60;;
30127;SDS011;16942;53.196;6.592;2022-11-15T13:58:26;5.53;;;2.33;;
30127;SDS011;16942;53.196;6.592;2022-11-15T14:01:02;9.33;;;3.00;;
30127;SDS011;16942;53.196;6.592;2022-11-15T14:03:30;5.47;;;2.60;;
30127;SDS011;16942;53.196;6.592;2022-11-15T14:08:29;5.50;;;2.37;;
30127;SDS011;16942;53.196;6.592;2022-11-15T14:13:40;5.23;;;2.77;;
30127;SDS011;16942;53.196;6.592;2022-11-15T14:16:14;3.97;;;2.70;;
30127;SDS011;16942;53.196;6.592;2022-11-15T14:18:50;4.33;;;2.30;;
30127;SDS011;16942;53.196;6.592;2022-11-15T14:21:17;5.20;;;2.47;;
30127;SDS011;16942;53.196;6.592;2022-11-15T14:23:43;6.47;;;2.93;;
30127;SDS011;16942;53.196;6.592;2022-11-15T14:26:30;3.83;;;2.63;;
30127;SDS011;16942;53.196;6.592;2022-11-15T14:28:56;5.07;;;2.87;;
30127;SDS011;16942;53.196;6.592;2022-11-15T14:31:22;3.53;;;2.47;;
30127;SDS011;16942;53.196;6.592;2022-11-15T14:33:49;3.07;;;2.40;;
30127;SDS011;16942;53.196;6.592;2022-11-15T14:36:16;4.37;;;2.60;;
30127;SDS011;16942;53.196;6.592;2022-11-15T14:38:43;4.60;;;2.47;;
30127;SDS011;16942;53.196;6.592;2022-11-15T14:43:43;2.63;;;1.80;;
30127;SDS011;16942;53.196;6.592;2022-11-15T14:46:09;5.57;;;2.13;;
30127;SDS011;16942;53.196;6.592;2022-11-15T14:48:35;3.83;;;2.27;;
30127;SDS011;16942;53.196;6.592;2022-11-15T14:51:01;4.53;;;2.13;;
30127;SDS011;16942;53.196;6.592;2022-11-15T14:53:27;3.20;;;2.57;;
30127;SDS011;16942;53.196;6.592;2022-11-15T14:55:53;4.27;;;2.33;;
30127;SDS011;16942;53.196;6.592;2022-11-15T14:58:19;4.87;;;2.50;;
30127;SDS011;16942;53.196;6.592;2022-11-15T15:00:45;5.10;;;2.27;;
30127;SDS011;16942;53.196;6.592;2022-11-15T15:03:11;3.73;;;2.30;;
30127;SDS011;16942;53.196;6.592;2022-11-15T15:05:39;4.50;;;1.90;;
30127;SDS011;16942;53.196;6.592;2022-11-15T15:08:05;2.70;;;2.10;;
30127;SDS011;16942;53.196;6.592;2022-11-15T15:10:32;5.23;;;2.50;;
30127;SDS011;16942;53.196;6.592;2022-11-15T15:12:59;2.33;;;2.13;;
30127;SDS011;16942;53.196;6.592;2022-11-15T15:15:26;4.50;;;2.30;;
30127;SDS011;16942;53.196;6.592;2022-11-15T15:17:55;6.00;;;2.47;;
30127;SDS011;16942;53.196;6.592;2022-11-15T15:20:21;2.87;;;2.00;;
30127;SDS011;16942;53.196;6.592;2022-11-15T15:22:47;6.17;;;2.17;;
30127;SDS011;16942;53.196;6.592;2022-11-15T15:25:22;2.63;;;2.43;;
30127;SDS011;16942;53.196;6.592;2022-11-15T15:27:50;4.90;;;2.77;;
30127;SDS011;16942;53.196;6.592;2022-11-15T15:30:16;5.03;;;2.60;;
30127;SDS011;16942;53.196;6.592;2022-11-15T15:32:42;4.47;;;2.87;;
30127;SDS011;16942;53.196;6.592;2022-11-15T15:35:11;2.77;;;2.50;;
30127;SDS011;16942;53.196;6.592;2022-11-15T15:37:37;4.67;;;2.90;;
30127;SDS011;16942;53.196;6.592;2022-11-15T15:40:03;5.30;;;3.10;;
30127;SDS011;16942;53.196;6.592;2022-11-15T15:42:29;4.67;;;3.00;;
30127;SDS011;16942;53.196;6.592;2022-11-15T15:44:56;4.50;;;2.90;;
30127;SDS011;16942;53.196;6.592;2022-11-15T15:47:22;4.30;;;3.10;;
30127;SDS011;16942;53.196;6.592;2022-11-15T15:49:49;4.53;;;3.60;;
30127;SDS011;16942;53.196;6.592;2022-11-15T15:52:15;4.23;;;3.13;;
30127;SDS011;16942;53.196;6.592;2022-11-15T15:54:41;3.80;;;3.10;;
30127;SDS011;16942;53.196;6.592;2022-11-15T15:57:08;3.80;;;3.40;;
30127;SDS011;16942;53.196;6.592;2022-11-15T15:59:36;6.10;;;3.30;;
30127;SDS011;16942;53.196;6.592;2022-11-15T16:02:02;4.00;;;3.47;;
30127;SDS011;16942;53.196;6.592;2022-11-15T16:04:29;4.00;;;3.33;;
30127;SDS011;16942;53.196;6.592;2022-11-15T16:06:59;5.93;;;3.50;;
30127;SDS011;16942;53.196;6.592;2022-11-15T16:09:25;4.97;;;3.70;;
30127;SDS011;16942;53.196;6.592;2022-11-15T16:12:10;5.57;;;3.33;;
30127;SDS011;16942;53.196;6.592;2022-11-15T16:14:36;7.17;;;4.10;;
30127;SDS011;16942;53.196;6.592;2022-11-15T16:17:02;6.27;;;3.97;;
30127;SDS011;16942;53.196;6.592;2022-11-15T16:19:29;6.43;;;4.33;;
30127;SDS011;16942;53.196;6.592;2022-11-15T16:21:55;8.63;;;3.90;;
30127;SDS011;16942;53.196;6.592;2022-11-15T16:24:21;4.47;;;4.00;;
30127;SDS011;16942;53.196;6.592;2022-11-15T16:26:47;7.00;;;4.30;;
30127;SDS011;16942;53.196;6.592;2022-11-15T16:29:14;5.30;;;4.07;;
30127;SDS011;16942;53.196;6.592;2022-11-15T16:31:40;6.93;;;4.60;;
30127;SDS011;16942;53.196;6.592;2022-11-15T16:34:06;8.00;;;4.70;;
30127;SDS011;16942;53.196;6.592;2022-11-15T16:36:32;5.93;;;4.77;;
30127;SDS011;16942;53.196;6.592;2022-11-15T16:39:00;6.03;;;4.83;;